Time;durP1;ratioP1;P1;durP2;ratioP2;P2;SDS_P1;SDS_P2;PMS_P1;PMS_P2;Temp;Humidity;BMP_temperature;BMP_pressure;BME280_temperature;BME280_humidity;BME280_pressure;Samples;Min_cycle;Max_cycle;Signal;HPM_P1;HPM_P2
2024/03/01 00:02:03;;;;;;;;;79.67;68.00;;;;;8.72;100.00;99223.97;6273628;20;3665259;-45
2024/03/01 00:04:32;;;;;;;;;74.33;63.00;;;;;8.62;100.00;99224.63;6275946;20;3634640;-46
2024/03/01 00:07:02;;;;;;;;;79.00;67.00;;;;;8.67;100.00;99219.84;6275993;20;3656590;-45
2024/03/01 00:09:32;;;;;;;;;80.00;66.00;;;;;8.52;100.00;99222.47;6275375;20;3666014;-47
2024/03/01 00:12:02;;;;;;;;;79.00;65.33;;;;;8.67;100.00;99219.84;6275203;20;3667976;-45
2024/03/01 00:14:32;;;;;;;;;75.00;63.00;;;;;8.76;100.00;99229.97;6274432;20;3635702;-45
2024/03/01 00:17:02;;;;;;;;;78.33;68.67;;;;;8.69;100.00;99233.97;6307800;20;3653399;-44
2024/03/01 00:19:31;;;;;;;;;68.50;54.50;;;;;8.50;100.00;99221.72;6275060;20;2874266;-44
2024/03/01 00:21:59;;;;;;;;;69.00;56.00;;;;;8.56;100.00;99221.34;6274641;20;2862773;-47
2024/03/01 00:24:29;;;;;;;;;73.67;60.33;;;;;8.55;100.00;99216.94;6275600;20;3625319;-46
2024/03/01 00:26:59;;;;;;;;;73.67;60.67;;;;;8.66;100.00;99218.09;6306818;20;3633653;-46
2024/03/01 00:29:28;;;;;;;;;78.33;64.67;;;;;8.60;100.00;99218.50;6306604;20;3665903;-44
2024/03/01 00:31:58;;;;;;;;;76.00;61.33;;;;;8.88;100.00;99207.81;6274234;20;3660020;-46
2024/03/01 00:34:27;;;;;;;;;80.00;63.00;;;;;8.63;100.00;99216.47;6274016;20;3665926;-46
2024/03/01 00:36:56;;;;;;;;;76.00;66.00;;;;;8.49;100.00;99205.75;6274712;20;2785271;-46
2024/03/01 00:39:26;;;;;;;;;75.33;62.00;;;;;8.52;100.00;99205.56;6273855;20;3651340;-44
2024/03/01 00:41:56;;;;;;;;;75.33;58.33;;;;;8.39;100.00;99205.44;6273713;20;3655612;-47
2024/03/01 00:44:26;;;;;;;;;74.00;61.33;;;;;8.54;100.00;99196.50;6304877;20;3641966;-44
2024/03/01 00:46:56;;;;;;;;;77.33;63.33;;;;;8.80;100.00;99188.69;6275431;20;3653438;-45
2024/03/01 00:49:25;;;;;;;;;77.33;67.00;;;;;8.43;100.00;99192.78;6274965;20;3681537;-44
2024/03/01 00:51:55;;;;;;;;;77.67;60.00;;;;;8.30;100.00;99192.63;6272879;20;3669084;-44
2024/03/01 00:54:25;;;;;;;;;74.67;59.33;;;;;8.18;100.00;99185.31;6272079;20;3638865;-46
2024/03/01 00:56:56;;;;;;;;;76.00;63.67;;;;;8.42;100.00;99199.91;6306721;20;3647267;-47
2024/03/01 00:59:25;;;;;;;;;78.67;67.00;;;;;8.25;100.00;99186.69;6274614;20;3661758;-45
2024/03/01 01:01:55;;;;;;;;;76.00;61.67;;;;;8.41;100.00;99197.34;6271288;20;3651369;-46
2024/03/01 01:04:25;;;;;;;;;77.00;66.00;;;;;8.13;100.00;99183.75;6306126;20;3654416;-44
2024/03/01 01:06:55;;;;;;;;;73.33;61.67;;;;;8.35;100.00;99185.19;6276194;20;3637762;-44
2024/03/01 01:09:24;;;;;;;;;79.50;65.50;;;;;8.83;100.00;99176.94;6310683;20;3656555;-44
2024/03/01 01:11:54;;;;;;;;;70.67;55.67;;;;;8.62;100.00;99174.63;6305816;20;3629390;-47
2024/03/01 01:14:24;;;;;;;;;79.50;65.50;;;;;8.60;100.00;99175.66;6304842;20;3535627;-46
2024/03/01 01:16:53;;;;;;;;;79.33;66.33;;;;;8.71;100.00;99173.19;6304507;20;3670125;-44
2024/03/01 01:19:23;;;;;;;;;78.33;67.33;;;;;8.62;100.00;99165.75;6270759;20;3658596;-44
2024/03/01 01:21:53;;;;;;;;;77.33;62.00;;;;;8.92;100.00;99166.47;6274867;20;3663287;-45
2024/03/01 01:24:23;;;;;;;;;74.33;63.00;;;;;8.79;100.00;99162.84;6270250;20;3627327;-45
2024/03/01 01:26:52;;;;;;;;;78.25;62.50;;;;;8.91;100.00;99158.56;6311215;20;4408575;-48
2024/03/01 01:29:22;;;;;;;;;77.00;63.00;;;;;8.99;100.00;99151.75;6307598;20;3657620;-45
2024/03/01 01:31:51;;;;;;;;;78.67;65.00;;;;;8.55;100.00;99150.03;6307112;20;3669116;-44
2024/03/01 01:34:21;;;;;;;;;76.33;62.00;;;;;8.32;100.00;99145.22;6273056;20;3656524;-46
2024/03/01 01:36:51;;;;;;;;;80.33;65.33;;;;;8.27;100.00;99136.66;6271314;20;3665873;-44
2024/03/01 01:39:21;;;;;;;;;75.67;62.67;;;;;8.64;100.00;99134.41;6273262;20;3639820;-43
2024/03/01 01:41:50;;;;;;;;;80.00;70.00;;;;;8.72;100.00;99134.78;6304110;20;3672119;-44
2024/03/01 01:44:20;;;;;;;;;75.00;60.00;;;;;8.58;100.00;99127.59;6274069;20;3652345;-45
2024/03/01 01:46:50;;;;;;;;;75.67;62.67;;;;;8.26;100.00;99118.84;6273513;20;3652371;-44
2024/03/01 01:49:26;;;;;;;;;77.00;64.00;;;;;8.21;100.00;99120.94;6305987;20;3649312;-45
2024/03/01 01:51:57;;;;;;;;;77.67;64.67;;;;;8.31;100.00;99125.63;6272684;20;3653400;-46
2024/03/01 01:54:27;;;;;;;;;76.33;63.00;;;;;8.25;100.00;99127.84;6273861;20;3658762;-44
2024/03/01 01:56:57;;;;;;;;;71.67;59.00;;;;;8.55;100.00;99119.75;6271598;20;3623263;-44
2024/03/01 01:59:27;;;;;;;;;79.33;66.33;;;;;8.20;100.00;99117.41;6304168;20;3673223;-44
2024/03/01 02:01:57;;;;;;;;;79.67;66.67;;;;;8.44;100.00;99114.22;6265214;20;3658666;-46
2024/03/01 02:04:27;;;;;;;;;81.00;65.67;;;;;8.30;100.00;99109.69;6265956;20;3683094;-45
2024/03/01 02:06:57;;;;;;;;;75.33;59.67;;;;;8.11;100.00;99116.19;6271270;20;3636770;-44
2024/03/01 02:09:26;;;;;;;;;76.50;64.75;;;;;8.42;100.00;99113.44;6305799;20;4397171;-46
2024/03/01 02:11:56;;;;;;;;;77.33;66.33;;;;;8.10;100.00;99103.75;6307129;20;3664325;-46
2024/03/01 02:14:26;;;;;;;;;83.67;73.33;;;;;8.27;100.00;99105.41;6273034;20;3679473;-44
2024/03/01 02:16:55;;;;;;;;;82.33;65.67;;;;;7.97;100.00;99100.09;6275714;20;3661794;-44
2024/03/01 02:19:25;;;;;;;;;79.00;58.67;;;;;7.81;100.00;99107.31;6276063;20;3660732;-45
2024/03/01 02:22:13;;;;;;;;;84.00;68.33;;;;;8.22;100.00;99106.66;6271309;20;3662742;-47
2024/03/01 02:24:43;;;;;;;;;82.00;67.67;;;;;8.24;100.00;99099.38;6265375;20;3662184;-44
2024/03/01 02:27:12;;;;;;;;;79.00;61.67;;;;;8.35;100.00;99091.56;6305669;20;3644030;-48
2024/03/01 02:29:42;;;;;;;;;75.67;58.67;;;;;8.00;100.00;99086.53;6276231;20;3637751;-44
2024/03/01 02:32:12;;;;;;;;;79.33;62.00;;;;;7.42;100.00;99100.69;6308679;20;3634664;-44
2024/03/01 02:34:42;;;;;;;;;79.33;62.67;;;;;8.05;100.00;99083.59;6304043;20;3653372;-45
2024/03/01 02:37:12;;;;;;;;;79.00;64.33;;;;;7.88;100.00;99098.84;6305712;20;3652446;-46
2024/03/01 02:39:42;;;;;;;;;70.00;54.00;;;;;8.07;100.00;99101.25;6307360;20;3631526;-49
2024/03/01 02:42:11;;;;;;;;;78.33;61.67;;;;;7.72;100.00;99110.56;6306101;20;3639842;-44
2024/03/01 02:44:41;;;;;;;;;80.00;60.67;;;;;7.98;100.00;99106.28;6305621;20;3638807;-47
2024/03/01 02:47:10;;;;;;;;;79.00;61.67;;;;;8.21;100.00;99116.44;6307282;20;3637766;-45
2024/03/01 02:49:40;;;;;;;;;74.00;58.00;;;;;8.38;100.00;99110.09;6306643;20;3624334;-45
2024/03/01 02:52:10;;;;;;;;;76.00;60.67;;;;;8.33;100.00;99110.38;6306816;20;3625336;-44
2024/03/01 02:54:39;;;;;;;;;73.33;57.00;;;;;8.50;100.00;99108.47;6306238;20;2871245;-45
2024/03/01 02:57:09;;;;;;;;;80.33;62.67;;;;;8.22;100.00;99098.63;6308989;20;3659169;-44
2024/03/01 02:59:39;;;;;;;;;78.00;60.67;;;;;8.46;100.00;99099.81;6277545;20;3649260;-45
2024/03/01 03:02:08;;;;;;;;;84.67;66.33;;;;;8.24;100.00;99099.38;6304802;20;3670076;-44
2024/03/01 03:04:38;;;;;;;;;82.33;68.00;;;;;8.57;100.00;99094.63;6276992;20;3664983;-46
2024/03/01 03:07:08;;;;;;;;;82.00;65.33;;;;;8.55;100.00;99093.84;6276200;20;3669085;-48
2024/03/01 03:09:43;;;;;;;;;80.67;63.33;;;;;8.14;100.00;99088.41;6275877;20;3658614;-45
2024/03/01 03:12:13;;;;;;;;;71.33;55.67;;;;;8.57;100.00;99078.56;6271949;20;3618029;-43
2024/03/01 03:14:42;;;;;;;;;74.00;57.00;;;;;8.50;100.00;99068.34;6304909;20;3627332;-44
2024/03/01 03:17:12;;;;;;;;;77.00;59.33;;;;;8.10;100.00;99077.00;6307070;20;3631542;-44
2024/03/01 03:19:42;;;;;;;;;78.67;64.33;;;;;7.96;100.00;99063.63;6272452;20;3657557;-45
2024/03/01 03:22:11;;;;;;;;;143.67;125.33;;;;;7.95;100.00;99051.19;6307890;20;3711805;-43
2024/03/01 03:24:41;;;;;;;;;88.33;74.00;;;;;7.74;100.00;99037.38;6304656;20;3675364;-44
2024/03/01 03:27:12;;;;;;;;;86.33;69.67;;;;;8.14;100.00;99051.81;6275824;20;3680454;-44
2024/03/01 03:29:42;;;;;;;;;81.00;63.00;;;;;8.59;100.00;99056.22;6275532;20;3648188;-46
2024/03/01 03:32:11;;;;;;;;;85.00;69.33;;;;;8.52;100.00;99058.41;6307111;20;3663904;-46
2024/03/01 03:34:42;;;;;;;;;80.00;64.00;;;;;8.73;100.00;99053.53;6275190;20;3658671;-44
2024/03/01 03:37:11;;;;;;;;;85.67;69.33;;;;;8.46;100.00;99051.66;6307102;20;3672146;-44
2024/03/01 03:39:41;;;;;;;;;81.67;67.67;;;;;8.51;100.00;99054.91;6275174;20;3658695;-44
2024/03/01 03:42:11;;;;;;;;;79.00;64.00;;;;;8.73;100.00;99067.75;6272163;20;3588819;-47
2024/03/01 03:44:41;;;;;;;;;89.33;81.00;;;;;8.66;100.00;99057.53;6303681;20;3664861;-47
2024/03/01 03:47:10;;;;;;;;;83.00;70.00;;;;;8.48;100.00;99064.94;6273290;20;3646224;-45
2024/03/01 03:49:40;;;;;;;;;86.33;70.67;;;;;8.91;100.00;99057.69;6270681;20;3685802;-45
2024/03/01 03:52:09;;;;;;;;;79.00;64.67;;;;;8.97;100.00;99049.25;6276171;20;3633781;-44
2024/03/01 03:54:39;;;;;;;;;80.67;65.00;;;;;8.90;100.00;99072.03;6272278;20;3659651;-47
2024/03/01 03:57:08;;;;;;;;;77.67;62.00;;;;;9.19;100.00;99063.94;6273521;20;3652447;-47
2024/03/01 03:59:38;;;;;;;;;74.75;64.50;;;;;9.07;100.00;99051.34;6305951;20;3650483;-45
2024/03/01 04:02:10;;;;;;;;;79.00;62.11;;;;;9.00;100.00;99062.47;6197623;20;4395163;-47
2024/03/01 04:04:40;;;;;;;;;74.33;55.67;;;;;9.11;100.00;99055.50;6304331;20;3649350;-45
2024/03/01 04:07:10;;;;;;;;;76.67;62.67;;;;;8.79;100.00;99053.13;6274819;20;3657574;-46
2024/03/01 04:09:39;;;;;;;;;76.50;66.00;;;;;8.83;100.00;99062.69;6309712;20;4421209;-47
2024/03/01 04:12:11;;;;;;;;;78.00;66.75;;;;;8.81;100.00;99064.59;6304788;20;4430357;-44
2024/03/01 04:14:40;;;;;;;;;79.33;69.00;;;;;8.79;100.00;99054.00;6304543;20;3673209;-47
2024/03/01 04:17:11;;;;;;;;;83.67;72.67;;;;;8.55;100.00;99056.41;6275401;20;3672156;-47
2024/03/01 04:19:40;;;;;;;;;79.33;69.33;;;;;8.43;100.00;99061.69;6277797;20;3650366;-44
2024/03/01 04:22:13;;;;;;;;;77.33;63.67;;;;;8.76;100.00;99058.66;6273306;20;3656539;-46
2024/03/01 04:24:43;;;;;;;;;80.67;69.67;;;;;8.93;100.00;99065.63;6275183;20;3665888;-47
2024/03/01 04:27:13;;;;;;;;;77.00;64.25;;;;;8.57;100.00;99065.19;6276675;20;3652458;-46
2024/03/01 04:29:42;;;;;;;;;81.75;66.00;;;;;8.48;100.00;99056.91;6310535;20;4440861;-45
2024/03/01 04:32:12;;;;;;;;;74.33;62.67;;;;;8.75;100.00;99073.88;6270915;20;3644028;-45
2024/03/01 04:34:42;;;;;;;;;69.67;54.67;;;;;8.83;100.00;99062.69;6306202;20;2863120;-45
2024/03/01 04:37:14;;;;;;;;;77.67;64.00;;;;;8.34;100.00;99047.03;6305736;20;3655581;-46
2024/03/01 04:39:42;;;;;;;;;75.00;63.67;;;;;8.27;100.00;99040.38;6276413;20;3631509;-44
2024/03/01 04:42:12;;;;;;;;;73.67;60.33;;;;;8.50;100.00;99050.47;6276696;20;3617952;-45
2024/03/01 04:44:42;;;;;;;;;73.67;61.00;;;;;8.43;100.00;99056.34;6306139;20;3626285;-44
2024/03/01 04:47:11;;;;;;;;;76.00;63.67;;;;;8.53;100.00;99061.00;6307205;20;3652392;-44
2024/03/01 04:49:45;;;;;;;;;74.67;63.00;;;;;8.72;100.00;99058.03;6305284;20;3631629;-45
2024/03/01 04:52:15;;;;;;;;;75.00;59.33;;;;;8.92;100.00;99064.75;6307601;20;3653398;-48
2024/03/01 04:54:44;;;;;;;;;74.33;62.00;;;;;8.76;100.00;99056.84;6272076;20;3640874;-45
2024/03/01 04:57:14;;;;;;;;;75.67;63.67;;;;;8.44;100.00;99056.22;6271306;20;3652354;-47
2024/03/01 04:59:43;;;;;;;;;74.67;61.00;;;;;8.49;100.00;99061.28;6274263;20;3639799;-45
2024/03/01 05:02:12;;;;;;;;;75.00;63.67;;;;;8.43;100.00;99061.69;6306589;20;3637753;-45
2024/03/01 05:04:41;;;;;;;;;74.75;57.25;;;;;8.54;100.00;99067.22;6275460;20;3639956;-45
2024/03/01 05:07:12;;;;;;;;;74.00;58.33;;;;;8.96;100.00;99066.28;6307040;20;3644099;-45
2024/03/01 05:09:42;;;;;;;;;72.33;60.00;;;;;8.70;100.00;99069.78;6279128;20;3613842;-46
2024/03/01 05:12:15;;;;;;;;;76.33;65.33;;;;;8.45;100.00;99059.75;6274874;20;3656555;-47
2024/03/01 05:14:45;;;;;;;;;71.33;58.00;;;;;8.56;100.00;99058.13;6303607;20;2872294;-45
2024/03/01 05:17:16;;;;;;;;;75.00;60.00;;;;;8.54;100.00;99060.03;6306399;20;3659618;-45
2024/03/01 05:19:46;;;;;;;;;76.33;64.33;;;;;8.65;100.00;99056.69;6274407;20;3656516;-46
2024/03/01 05:22:14;;;;;;;;;74.00;61.33;;;;;8.58;100.00;99060.69;6308575;20;3634620;-43
2024/03/01 05:24:44;;;;;;;;;72.33;61.00;;;;;8.67;100.00;99054.78;6272862;20;3613872;-44
2024/03/01 05:27:14;;;;;;;;;76.00;64.33;;;;;8.76;100.00;99064.88;6307424;20;3650276;-44
2024/03/01 05:29:43;;;;;;;;;72.67;59.00;;;;;8.53;100.00;99062.81;6272622;20;3624183;-44
2024/03/01 05:32:12;;;;;;;;;73.00;59.00;;;;;8.69;100.00;99057.34;6307318;20;2760736;-45
2024/03/01 05:34:41;;;;;;;;;77.33;64.67;;;;;8.60;100.00;99058.78;6274021;20;3647184;-45
2024/03/01 05:37:10;;;;;;;;;75.67;63.67;;;;;8.82;100.00;99069.00;6275366;20;3639871;-44
2024/03/01 05:39:40;;;;;;;;;73.33;60.67;;;;;9.07;100.00;99062.03;6302536;20;3615907;-45
2024/03/01 05:42:09;;;;;;;;;76.00;63.33;;;;;9.31;100.00;99055.06;6309628;20;3654451;-44
2024/03/01 05:44:39;;;;;;;;;76.00;66.25;;;;;8.93;100.00;99063.81;6274724;20;3656603;-45
2024/03/01 05:47:08;;;;;;;;;71.00;56.67;;;;;9.17;100.00;99060.50;6304209;20;3613792;-44
2024/03/01 05:49:37;;;;;;;;;74.00;59.00;;;;;8.81;100.00;99056.56;6307866;20;3630468;-44
2024/03/01 05:52:07;;;;;;;;;76.00;65.33;;;;;9.27;100.00;99066.97;6272993;20;3641929;-45
2024/03/01 05:54:37;;;;;;;;;72.00;62.33;;;;;9.48;100.00;99066.47;6303521;20;3616921;-46
2024/03/01 05:57:10;;;;;;;;;76.33;65.00;;;;;9.36;100.00;99074.38;6304572;20;3655482;-46
2024/03/01 05:59:39;;;;;;;;;77.67;67.33;;;;;9.32;100.00;99075.56;6273781;20;3653402;-44
2024/03/01 06:02:10;;;;;;;;;75.33;68.00;;;;;9.06;100.00;99071.03;6273207;20;3644043;-46
2024/03/01 06:04:40;;;;;;;;;79.00;67.00;;;;;9.13;100.00;99073.19;6272359;20;3673333;-45
2024/03/01 06:07:09;;;;;;;;;79.33;69.00;;;;;9.02;100.00;99079.25;6274474;20;3666946;-47
2024/03/01 06:09:40;;;;;;;;;84.67;72.33;;;;;9.36;100.00;99078.88;6274394;20;3668002;-45
2024/03/01 06:12:10;;;;;;;;;72.00;60.00;;;;;9.20;100.00;99084.38;6273773;20;3623230;-45
2024/03/01 06:14:40;;;;;;;;;79.67;66.67;;;;;9.02;100.00;99084.63;6302351;20;3673195;-45
2024/03/01 06:17:10;;;;;;;;;74.33;63.00;;;;;9.04;100.00;99083.69;6273991;20;3641956;-45
2024/03/01 06:19:39;;;;;;;;;75.33;66.00;;;;;9.10;100.00;99077.91;6273005;20;3629543;-45
2024/03/01 06:22:09;;;;;;;;;77.33;65.00;;;;;9.33;100.00;99071.91;6303224;20;3657589;-47
2024/03/01 06:24:38;;;;;;;;;74.67;64.00;;;;;9.27;100.00;99069.63;6273066;20;3643010;-46
2024/03/01 06:27:08;;;;;;;;;75.67;65.00;;;;;8.96;100.00;99065.44;6272044;20;3652365;-45
2024/03/01 06:29:38;;;;;;;;;72.67;63.00;;;;;9.07;100.00;99073.59;6278803;20;3636705;-45
2024/03/01 06:32:10;;;;;;;;;76.50;65.00;;;;;9.14;100.00;99079.44;6273701;20;3598167;-45
2024/03/01 06:34:40;;;;;;;;;77.67;64.33;;;;;9.08;100.00;99075.31;6303959;20;3654475;-47
2024/03/01 06:37:09;;;;;;;;;72.00;55.33;;;;;9.42;100.00;99079.31;6270494;20;3631607;-45
2024/03/01 06:39:39;;;;;;;;;72.33;56.67;;;;;9.41;100.00;99066.88;6305973;20;3633619;-47
2024/03/01 06:42:09;;;;;;;;;78.00;64.75;;;;;9.19;100.00;99080.84;6305137;20;3649276;-46
2024/03/01 06:44:39;;;;;;;;;76.00;63.00;;;;;9.47;100.00;99075.47;6303459;20;3662829;-44
2024/03/01 06:47:09;;;;;;;;;70.67;58.67;;;;;9.46;100.00;99077.31;6270694;20;2871172;-46
2024/03/01 06:49:47;;;;;;;;;77.75;65.50;;;;;9.40;100.00;99073.22;6306756;20;3656581;-44
2024/03/01 06:52:17;;;;;;;;;78.25;64.25;;;;;9.24;100.00;99059.09;6291248;20;4421070;-50
2024/03/01 06:54:46;;;;;;;;;77.67;66.00;;;;;9.35;100.00;99078.03;6300919;20;3668005;-45
2024/03/01 06:57:17;;;;;;;;;76.67;66.67;;;;;9.38;100.00;99072.44;6277476;20;3657622;-49
2024/03/01 06:59:47;;;;;;;;;78.33;64.33;;;;;9.28;100.00;99078.53;6276302;20;3645496;-47
2024/03/01 07:02:16;;;;;;;;;76.00;63.67;;;;;9.47;100.00;99073.66;6307652;20;3648662;-46
2024/03/01 07:04:46;;;;;;;;;72.33;60.67;;;;;9.35;100.00;99059.28;6308497;20;3633599;-45
2024/03/01 07:07:16;;;;;;;;;72.33;58.33;;;;;9.44;100.00;99063.16;6312696;20;3634675;-46
2024/03/01 07:09:46;;;;;;;;;73.00;57.00;;;;;9.39;100.00;99065.28;6279024;20;2833612;-47
2024/03/01 07:12:16;;;;;;;;;76.33;64.67;;;;;9.64;100.00;99061.81;6277276;20;3644109;-45
2024/03/01 07:14:46;;;;;;;;;71.67;57.67;;;;;9.94;100.00;99058.84;6305943;20;3621154;-45
2024/03/01 07:17:15;;;;;;;;;76.50;64.25;;;;;9.93;100.00;99061.66;6311191;20;3641054;-46
2024/03/01 07:19:45;;;;;;;;;72.33;60.67;;;;;9.67;100.00;99056.25;6306028;20;2858675;-45
2024/03/01 07:22:14;;;;;;;;;76.00;64.33;;;;;9.77;100.00;99056.44;6312485;20;3638941;-48
2024/03/01 07:24:42;;;;;;;;;72.67;58.67;;;;;9.73;100.00;99054.97;6270476;20;3634655;-48
2024/03/01 07:27:12;;;;;;;;;71.00;59.33;;;;;9.75;100.00;99059.25;6267743;20;3624366;-46
2024/03/01 07:29:42;;;;;;;;;71.33;57.33;;;;;9.55;100.00;99051.69;6300641;20;3619060;-48
2024/03/01 07:32:11;;;;;;;;;73.67;58.33;;;;;9.62;100.00;99042.28;6301219;20;3616960;-46
2024/03/01 07:34:40;;;;;;;;;72.33;59.00;;;;;9.63;100.00;99036.81;6298001;20;3623235;-44
2024/03/01 07:37:11;;;;;;;;;70.67;57.00;;;;;9.76;100.00;99044.03;6300416;20;3623276;-47
2024/03/01 07:39:40;;;;;;;;;74.67;61.67;;;;;9.54;100.00;99044.63;6300572;20;3637632;-44
2024/03/01 07:42:10;;;;;;;;;69.33;53.33;;;;;9.49;100.00;99054.81;6268761;20;3634701;-45
2024/03/01 07:44:39;;;;;;;;;71.67;57.33;;;;;9.62;100.00;99053.00;6298952;20;3634611;-48
2024/03/01 07:47:08;;;;;;;;;72.00;59.67;;;;;9.55;100.00;99049.03;6302204;20;3602356;-48
2024/03/01 07:49:37;;;;;;;;;71.67;58.33;;;;;9.83;100.00;99053.38;6269776;20;3615881;-47
2024/03/01 07:52:07;;;;;;;;;75.67;64.00;;;;;10.07;100.00;99048.13;6299282;20;3649290;-44
2024/03/01 07:54:37;;;;;;;;;69.67;57.67;;;;;10.32;100.00;99048.16;6297910;20;3623187;-45
2024/03/01 07:57:06;;;;;;;;;71.67;59.67;;;;;10.14;100.00;99049.44;6300172;20;3619089;-45
2024/03/01 07:59:36;;;;;;;;;73.75;61.50;;;;;9.99;100.00;99039.75;6303145;20;3643043;-46
2024/03/01 08:02:10;;;;;;;;;71.67;56.33;;;;;10.17;100.00;99040.31;6300197;20;3634633;-44
2024/03/01 08:04:40;;;;;;;;;71.33;57.33;;;;;10.38;100.00;99048.69;6299715;20;3635252;-44
2024/03/01 08:07:14;;;;;;;;;76.00;64.67;;;;;10.28;100.00;99049.31;6264828;20;3650668;-45
2024/03/01 08:09:47;;;;;;;;;69.33;56.67;;;;;10.30;100.00;99047.41;6268430;20;3622168;-47
2024/03/01 08:12:19;;;;;;;;;72.33;60.33;;;;;10.33;100.00;99043.66;6300732;20;3621224;-46
2024/03/01 08:14:52;;;;;;;;;64.67;53.00;;;;;10.36;100.00;99051.47;6299584;20;3620063;-45
2024/03/01 08:17:19;;;;;;;;;166.00;153.00;;;;;10.61;100.00;99052.41;6295414;20;1960890;-44
2024/03/01 08:19:50;;;;;;;;;67.33;54.00;;;;;10.41;100.00;99037.75;6298922;20;2871110;-46
2024/03/01 08:22:20;;;;;;;;;83.33;77.00;;;;;10.98;100.00;99034.50;6301714;20;3657547;-47
2024/03/01 08:24:54;;;;;;;;;84.00;81.00;;;;;10.68;100.00;99041.09;6265126;20;3640919;-47
2024/03/01 08:27:28;;;;;;;;;68.67;55.00;;;;;10.54;100.00;99046.63;6298287;20;3624242;-45
2024/03/01 08:29:57;;;;;;;;;80.00;73.67;;;;;10.65;100.00;99033.28;6298509;20;3650276;-46
2024/03/01 08:32:43;;;;;;;;;72.67;58.00;;;;;10.72;100.00;99042.63;6303985;20;3614571;-48
2024/03/01 08:35:18;;;;;;;;;75.00;67.67;;;;;10.53;100.00;99036.84;6267117;20;3630582;-48
2024/03/01 08:37:49;;;;;;;;;79.50;72.25;;;;;10.76;100.00;99035.19;6300696;20;4422093;-47
2024/03/01 08:40:54;;;;;;;;;73.67;60.00;;;;;10.63;100.00;99039.72;6303928;20;3603417;-45
2024/03/01 08:43:25;;;;;;;;;68.00;53.00;;;;;10.64;100.00;99031.56;6267732;20;3628419;-46
2024/03/01 08:46:01;;;;;;;;;71.00;59.00;;;;;10.56;100.00;99033.97;6302160;20;3611712;-47
2024/03/01 08:48:33;;;;;;;;;65.00;51.00;;;;;10.66;100.00;99032.28;6267071;20;3629531;-47
2024/03/01 08:51:03;;;;;;;;;65.33;53.00;;;;;10.42;100.00;99037.59;6299714;20;2860833;-45
2024/03/01 08:53:56;;;;;;;;;68.67;54.00;;;;;10.38;100.00;99041.50;6303306;20;3615947;-47
2024/03/01 08:57:06;;;;;;;;;67.00;52.00;;;;;10.61;100.00;99041.66;6267265;20;3635690;-45
2024/03/01 08:59:48;;;;;;;;;71.00;56.33;;;;;10.54;100.00;99036.75;6298004;20;3633595;-45
2024/03/01 09:02:26;;;;;;;;;73.33;62.33;;;;;10.58;100.00;99025.78;6297491;20;3638922;-44
2024/03/01 09:04:56;;;;;;;;;72.00;60.00;;;;;10.79;100.00;99026.91;6266745;20;3635817;-46
2024/03/01 09:07:29;;;;;;;;;71.67;54.33;;;;;10.79;100.00;99020.69;6265835;20;3643025;-47
2024/03/01 09:09:59;;;;;;;;;73.33;56.33;;;;;10.95;100.00;99013.19;6298335;20;3658093;-45
2024/03/01 09:12:29;;;;;;;;;72.00;59.67;;;;;11.21;100.00;99020.16;6267175;20;3626287;-45
2024/03/01 09:15:03;;;;;;;;;68.00;53.67;;;;;11.15;100.00;99009.91;6300090;20;3615977;-45
2024/03/01 09:17:33;;;;;;;;;72.67;57.33;;;;;11.07;100.00;99006.94;6268643;20;3644099;-46
2024/03/01 09:20:34;;;;;;;;;56.67;45.33;;;;;11.14;100.00;99002.81;6267068;20;3629464;-48
2024/03/01 09:23:14;;;;;;;;;65.67;51.00;;;;;11.33;100.00;99001.44;6301626;20;3615098;-48
2024/03/01 09:25:49;;;;;;;;;64.00;51.00;;;;;11.15;100.00;98992.91;6272334;20;3627402;-47
2024/03/01 09:28:21;;;;;;;;;68.33;55.67;;;;;11.02;100.00;98997.50;6266578;20;3620051;-49
2024/03/01 09:30:53;;;;;;;;;65.00;52.00;;;;;11.09;100.00;99001.44;6299283;20;3610790;-48
2024/03/01 09:33:25;;;;;;;;;68.00;53.00;;;;;11.26;100.00;99003.72;6268560;20;3621119;-45
2024/03/01 09:35:54;;;;;;;;;65.33;52.00;;;;;11.10;100.00;98997.78;6301460;20;3628448;-44
2024/03/01 09:38:23;;;;;;;;;65.33;51.00;;;;;11.14;100.00;98996.59;6269650;20;3632624;-44
2024/03/01 09:41:42;;;;;;;;;61.33;50.00;;;;;11.06;100.00;98988.22;6268727;20;3606675;-45
2024/03/01 09:44:37;;;;;;;;;64.00;51.00;;;;;11.42;100.00;98995.34;6266614;20;3620178;-46
2024/03/01 09:48:00;;;;;;;;;67.33;53.00;;;;;11.61;100.00;98990.28;6302529;20;3622157;-43
2024/03/01 09:51:17;;;;;;;;;66.33;52.67;;;;;11.70;100.00;98991.41;6264109;20;3624193;-44
2024/03/01 09:54:19;;;;;;;;;66.38;52.00;;;;;11.48;100.00;98977.88;6314894;20;3629548;-45
2024/03/01 09:57:14;;;;;;;;;64.33;51.33;;;;;11.67;100.00;98980.03;6300529;20;3626300;-47
2024/03/01 09:59:51;;;;;;;;;63.33;50.00;;;;;12.08;100.00;98990.25;6267839;20;3624274;-46
2024/03/01 10:03:14;;;;;;;;;63.00;51.00;;;;;12.04;100.00;98981.59;6299029;20;3618015;-45
2024/03/01 10:06:09;;;;;;;;;65.00;52.00;;;;;12.12;100.00;98993.59;6268115;20;3606562;-43
2024/03/01 10:09:11;;;;;;;;;69.33;56.33;;;;;11.80;100.00;98983.47;6265439;20;2870183;-44
2024/03/01 10:12:26;;;;;;;;;70.00;55.33;;;;;11.92;100.00;98984.38;6303258;20;3612827;-44
2024/03/01 10:15:34;;;;;;;;;63.00;51.00;;;;;12.00;100.00;98974.72;6260889;20;2812793;-46
2024/03/01 10:18:15;;;;;;;;;66.00;51.67;;;;;12.16;100.00;98978.88;6264086;20;3615946;-45
2024/03/01 10:21:34;;;;;;;;;57.00;45.67;;;;;12.27;100.00;98976.22;6299783;20;3615315;-44
2024/03/01 10:24:35;;;;;;;;;59.00;48.67;;;;;12.08;100.00;98966.91;6295971;20;2869143;-43
2024/03/01 10:27:28;;;;;;;;;60.00;47.67;;;;;12.25;100.00;98970.94;6298969;20;3625305;-43
2024/03/01 10:30:21;;;;;;;;;66.33;52.00;;;;;12.30;100.00;98967.91;6264751;20;3607540;-47
2024/03/01 10:32:52;;;;;;;;;64.33;50.00;;;;;12.28;100.00;98968.00;6305103;20;3630478;-45
2024/03/01 10:35:36;;;;;;;;;61.67;49.33;;;;;12.35;100.00;98962.13;6270479;20;3610689;-45
2024/03/01 10:38:57;;;;;;;;;66.00;51.67;;;;;12.23;100.00;98958.59;6306294;20;3599265;-46
2024/03/01 10:41:48;;;;;;;;;97.33;88.00;;;;;12.33;100.00;98958.72;6271647;20;3681515;-45
2024/03/01 10:45:18;;;;;;;;;143.29;121.00;;;;;12.36;100.00;98959.31;6278768;20;2549269;-43
2024/03/01 10:47:50;;;;;;;;;67.00;52.00;;;;;12.56;100.00;98956.84;6268077;20;3640875;-43
2024/03/01 10:50:30;;;;;;;;;71.33;57.67;;;;;12.63;100.00;98963.44;6301181;20;3629706;-45
2024/03/01 10:53:07;;;;;;;;;64.00;51.33;;;;;12.61;100.00;98951.94;6268248;20;3615876;-45
2024/03/01 10:55:42;;;;;;;;;59.67;48.00;;;;;12.59;100.00;98948.53;6302772;20;3598183;-44
2024/03/01 10:58:30;;;;;;;;;52.67;45.00;;;;;12.66;100.00;98949.72;6299773;20;2864981;-45
2024/03/01 11:01:42;;;;;;;;;55.33;45.67;;;;;12.86;100.00;98948.09;6301349;20;3603523;-44
2024/03/01 11:04:48;;;;;;;;;63.33;50.00;;;;;12.84;100.00;98942.81;6271979;20;3620124;-46
2024/03/01 11:07:46;;;;;;;;;70.00;56.00;;;;;12.68;100.00;98936.97;6270950;20;3616001;-46
2024/03/01 11:10:49;;;;;;;;;59.00;47.00;;;;;12.38;100.00;98938.53;6271324;20;3607668;-44
2024/03/01 11:13:21;;;;;;;;;61.75;47.75;;;;;12.56;100.00;98944.25;6305178;20;3625301;-43
2024/03/01 11:15:51;;;;;;;;;62.67;47.00;;;;;12.61;100.00;98941.16;6302705;20;3628378;-42
2024/03/01 11:18:32;;;;;;;;;65.50;48.75;;;;;12.58;100.00;98941.41;6273421;20;3645093;-44
2024/03/01 11:21:06;;;;;;;;;64.67;51.00;;;;;12.30;100.00;98935.59;6302715;20;3615986;-44
2024/03/01 11:23:44;;;;;;;;;64.33;52.00;;;;;12.51;100.00;98933.84;6268851;20;3627388;-44
2024/03/01 11:26:26;;;;;;;;;58.00;48.33;;;;;12.46;100.00;98927.97;6270736;20;3624270;-44
2024/03/01 11:29:04;;;;;;;;;62.33;50.67;;;;;12.39;100.00;98929.44;6266473;20;3616977;-45
2024/03/01 11:31:39;;;;;;;;;61.67;47.00;;;;;12.27;100.00;98925.94;6299253;20;3616933;-45